createdAt,value
2022-11-03T00:04:40.613Z,2.5
2022-11-03T00:09:46.741Z,2.6
2022-11-03T00:14:51.864Z,2.3
2022-11-03T00:19:57.979Z,2.3
2022-11-03T00:25:04.124Z,2.3
2022-11-03T00:30:10.229Z,2.6
2022-11-03T00:35:16.348Z,3
2022-11-03T00:40:22.447Z,2.7
2022-11-03T00:45:28.560Z,2.8
2022-11-03T00:50:33.686Z,2.8
2022-11-03T00:55:38.820Z,2.6
2022-11-03T01:00:44.944Z,2.5
2022-11-03T01:05:51.064Z,2.4
2022-11-03T01:10:57.170Z,2.5
2022-11-03T01:16:03.284Z,2.5
2022-11-03T01:21:08.419Z,2.3
2022-11-03T01:26:14.531Z,2.7
2022-11-03T01:31:20.654Z,2.5
2022-11-03T01:36:26.769Z,2
2022-11-03T01:41:32.885Z,1.8
2022-11-03T01:46:39.004Z,1.8
2022-11-03T01:51:45.125Z,1.8
2022-11-03T01:56:51.230Z,1.8
2022-11-03T02:01:57.342Z,1.7
2022-11-03T02:07:03.472Z,1.3
2022-11-03T02:12:09.574Z,1.3
2022-11-03T02:17:15.681Z,1.3
2022-11-03T02:22:21.831Z,1.1
2022-11-03T02:27:26.961Z,1
2022-11-03T02:32:33.106Z,1.5
2022-11-03T02:37:38.230Z,1.3
2022-11-03T02:42:43.314Z,1.9
2022-11-03T02:47:49.422Z,2.1
2022-11-03T02:52:55.634Z,2.3
2022-11-03T02:58:01.672Z,2.3
2022-11-03T03:03:07.782Z,2.2
2022-11-03T03:08:13.900Z,2.2
2022-11-03T03:13:20.010Z,2
2022-11-03T03:18:26.152Z,1.6
2022-11-03T03:23:32.240Z,1.5
2022-11-03T03:28:38.346Z,1.7
2022-11-03T03:33:44.460Z,1.6
2022-11-03T03:38:50.630Z,1.8
2022-11-03T03:43:56.737Z,2.1
2022-11-03T03:49:01.841Z,1.9
2022-11-03T03:54:07.945Z,1.5
2022-11-03T03:59:14.097Z,1.2
2022-11-03T04:09:26.321Z,1.3
2022-11-03T04:14:32.416Z,0.9
2022-11-03T04:19:38.524Z,1.4
2022-11-03T04:24:44.639Z,1.2
2022-11-03T04:29:50.755Z,1.2
2022-11-03T04:34:56.925Z,1.3
2022-11-03T04:40:03.051Z,1.8
2022-11-03T04:45:09.094Z,2.1
2022-11-03T04:50:15.211Z,1.6
2022-11-03T04:55:20.347Z,1.3
2022-11-03T05:00:26.475Z,1.4
2022-11-03T05:05:32.581Z,1.5
2022-11-03T05:10:38.703Z,1.2
2022-11-03T05:15:44.809Z,1.2
2022-11-03T05:20:50.931Z,2.1
2022-11-03T05:25:57.088Z,2.2
2022-11-03T05:31:03.172Z,1.8
2022-11-03T05:36:09.294Z,1.8
2022-11-03T05:41:15.434Z,1.4
2022-11-03T05:46:21.562Z,1.8
2022-11-03T05:51:27.642Z,1.7
2022-11-03T05:56:33.766Z,1.8
2022-11-03T06:01:38.969Z,2.5
2022-11-03T06:06:45.062Z,2.9
2022-11-03T06:11:51.120Z,3.1
2022-11-03T06:16:57.236Z,2
2022-11-03T06:22:03.336Z,1.8
2022-11-03T06:27:09.449Z,1.8
2022-11-03T06:32:15.564Z,1.9
2022-11-03T06:37:21.677Z,2.1
2022-11-03T06:42:27.843Z,1.9
2022-11-03T06:47:33.901Z,2.2
2022-11-03T06:52:40.030Z,3.3
2022-11-03T06:57:46.140Z,3.4
2022-11-03T07:02:52.278Z,3.8
2022-11-03T07:07:57.386Z,3.8
2022-11-03T07:13:03.500Z,3.9
2022-11-03T07:18:09.621Z,4.1
2022-11-03T07:23:15.733Z,4.6
2022-11-03T07:28:21.836Z,5.2
2022-11-03T07:33:28.013Z,5.6
2022-11-03T07:38:34.096Z,6.2
2022-11-03T07:43:40.210Z,6.6
2022-11-03T07:48:46.297Z,7.1
2022-11-03T07:53:52.401Z,7.2
2022-11-03T07:58:58.513Z,7.9
2022-11-03T08:04:04.672Z,8.3
2022-11-03T08:09:10.766Z,8.5
2022-11-03T08:14:15.876Z,9
2022-11-03T08:19:21.987Z,10.1
2022-11-03T08:24:28.098Z,10.4
2022-11-03T08:29:34.214Z,10.8
2022-11-03T08:34:40.320Z,10.9
2022-11-03T08:39:46.431Z,11.2
2022-11-03T08:44:52.540Z,11.7
2022-11-03T08:49:58.653Z,11.6
2022-11-03T08:55:04.763Z,11.9
2022-11-03T09:00:10.880Z,11.4
2022-11-03T09:05:16.995Z,11
2022-11-03T09:10:23.118Z,11.2
2022-11-03T09:15:29.206Z,10.9
2022-11-03T09:20:34.318Z,11
2022-11-03T09:25:40.454Z,11.2
2022-11-03T09:30:46.553Z,11.1
2022-11-03T09:35:52.678Z,11
2022-11-03T09:40:58.786Z,11
2022-11-03T09:46:04.890Z,11.2
2022-11-03T09:51:10.999Z,11.6
2022-11-03T09:56:17.104Z,11.7
2022-11-03T10:01:23.238Z,11.8
2022-11-03T10:06:29.330Z,11.3
2022-11-03T10:11:35.431Z,11.3
2022-11-03T10:16:41.551Z,11.6
2022-11-03T10:21:47.680Z,11.6
2022-11-03T10:26:52.786Z,11.6
2022-11-03T10:31:58.909Z,11.8
2022-11-03T10:37:05.013Z,11.9
2022-11-03T10:42:11.125Z,12.1
2022-11-03T10:47:17.242Z,12.2
2022-11-03T10:52:23.346Z,12.2
2022-11-03T10:57:29.470Z,12.2
2022-11-03T11:02:35.582Z,12.2
2022-11-03T11:07:41.681Z,12.2
2022-11-03T11:12:47.801Z,12.2
2022-11-03T11:17:53.922Z,12.3
2022-11-03T11:23:00.027Z,12.4
2022-11-03T11:28:06.132Z,12.6
2022-11-03T11:33:11.256Z,12.6
2022-11-03T11:38:17.374Z,12.9
2022-11-03T11:43:23.495Z,12.7
2022-11-03T11:48:29.595Z,12.8
2022-11-03T11:53:35.711Z,13.2
2022-11-03T11:58:41.821Z,13.5
2022-11-03T12:03:47.959Z,14
2022-11-03T12:08:54.065Z,14.3
2022-11-03T12:14:00.164Z,14
2022-11-03T12:19:06.284Z,14.1
2022-11-03T12:24:12.376Z,13.9
2022-11-03T12:29:18.494Z,14.4
2022-11-03T12:34:24.604Z,14.5
2022-11-03T12:39:29.725Z,14.3
2022-11-03T12:44:35.852Z,14.7
2022-11-03T12:49:41.972Z,14.9
2022-11-03T12:54:48.061Z,15.4
2022-11-03T12:59:54.169Z,14.7
2022-11-03T13:05:00.321Z,14.7
2022-11-03T13:10:06.415Z,15.3
2022-11-03T13:15:12.524Z,15.3
2022-11-03T13:20:18.607Z,16.5
2022-11-03T13:25:24.734Z,17.6
2022-11-03T13:30:30.859Z,17.4
2022-11-03T13:35:36.952Z,16.5
2022-11-03T13:40:43.073Z,15.2
2022-11-03T13:45:48.237Z,16
2022-11-03T13:50:54.336Z,15.8
2022-11-03T13:56:00.432Z,15.1
2022-11-03T14:01:06.644Z,14.1
2022-11-03T14:06:12.776Z,13.3
2022-11-03T14:11:18.866Z,12.9
2022-11-03T14:16:24.864Z,12.8
2022-11-03T14:21:30.979Z,12.7
2022-11-03T14:26:37.085Z,12.4
2022-11-03T14:31:43.191Z,12.2
2022-11-03T14:36:49.311Z,12
2022-11-03T14:41:55.413Z,11.8
2022-11-03T14:47:01.558Z,11.6
2022-11-03T14:52:06.644Z,11.6
2022-11-03T14:57:12.788Z,11.6
2022-11-03T15:02:18.925Z,11.4
2022-11-03T15:07:24.994Z,11.2
2022-11-03T15:12:31.110Z,10.8
2022-11-03T15:17:37.211Z,10.6
2022-11-03T15:22:43.343Z,10.4
2022-11-03T15:27:49.429Z,10.1
2022-11-03T15:32:55.541Z,9.8
2022-11-03T15:38:01.650Z,9.5
2022-11-03T15:43:07.783Z,9.4
2022-11-03T15:48:13.927Z,9.5
2022-11-03T15:53:20.010Z,9.4
2022-11-03T15:58:25.138Z,9.4
2022-11-03T16:03:31.254Z,9.5
2022-11-03T16:08:37.345Z,9.6
2022-11-03T16:13:43.464Z,10
2022-11-03T16:18:49.567Z,10.3
2022-11-03T16:23:55.692Z,10.2
2022-11-03T16:29:01.836Z,10
2022-11-03T16:34:07.955Z,9.9
2022-11-03T16:39:14.013Z,9.8
2022-11-03T16:44:20.151Z,9.6
2022-11-03T16:49:26.255Z,9.5
2022-11-03T16:54:32.359Z,9.5
2022-11-03T16:59:38.483Z,9.6
2022-11-03T17:04:43.608Z,9.8
2022-11-03T17:09:49.726Z,10.1
2022-11-03T17:14:55.828Z,10.3
2022-11-03T17:20:01.947Z,10.7
2022-11-03T17:25:08.065Z,10.7
2022-11-03T17:30:14.163Z,10.7
2022-11-03T17:35:20.271Z,10.7
2022-11-03T17:40:26.395Z,10.7
2022-11-03T17:45:32.496Z,10.7
2022-11-03T17:50:38.615Z,10.6
2022-11-03T17:55:44.773Z,10.6
2022-11-03T18:00:50.894Z,10.7
2022-11-03T18:05:57.191Z,10.7
2022-11-03T18:11:02.186Z,10.7
2022-11-03T18:16:08.224Z,10.5
2022-11-03T18:21:14.308Z,10.6
2022-11-03T18:26:19.465Z,10.5
2022-11-03T18:31:25.653Z,10.4
2022-11-03T18:36:31.792Z,10.3
2022-11-03T18:41:37.823Z,10.3
2022-11-03T18:46:43.904Z,10.2
2022-11-03T18:51:50.030Z,10
2022-11-03T18:56:56.150Z,9.7
2022-11-03T19:02:02.310Z,9.6
2022-11-03T19:07:08.388Z,10
2022-11-03T19:12:14.493Z,10.1
2022-11-03T19:17:20.606Z,9.9
2022-11-03T19:22:26.716Z,10
2022-11-03T19:27:32.953Z,9.8
2022-11-03T19:32:37.961Z,9.6
2022-11-03T19:37:44.213Z,9.5
2022-11-03T19:42:50.169Z,9.5
2022-11-03T19:47:56.282Z,9.6
2022-11-03T19:53:02.401Z,9.5
2022-11-03T19:58:08.506Z,9.6
2022-11-03T20:03:14.628Z,9.6
2022-11-03T20:08:20.813Z,9.4
2022-11-03T20:13:26.908Z,9.3
2022-11-03T20:18:32.984Z,9.5
2022-11-03T20:23:39.104Z,9.4
2022-11-03T20:28:45.217Z,9.6
2022-11-03T20:33:51.335Z,9.4
2022-11-03T20:38:56.475Z,9.4
2022-11-03T20:44:02.579Z,9.3
2022-11-03T20:49:08.718Z,9.3
2022-11-03T20:54:14.844Z,9.2
2022-11-03T20:59:20.977Z,9.1
2022-11-03T21:04:27.072Z,9.1
2022-11-03T21:09:33.164Z,9.1
2022-11-03T21:14:39.314Z,8.8
2022-11-03T21:19:45.403Z,8.8
2022-11-03T21:24:51.516Z,9
2022-11-03T21:29:57.619Z,8.9
2022-11-03T21:35:03.743Z,8.8
2022-11-03T21:40:09.847Z,8.8
2022-11-03T21:45:16.004Z,8.8
2022-11-03T21:50:21.133Z,8.8
2022-11-03T21:55:27.248Z,8.8
2022-11-03T22:00:33.376Z,9.2
2022-11-03T22:05:39.455Z,9.2
2022-11-03T22:10:45.584Z,9.3
2022-11-03T22:15:51.682Z,9.3
2022-11-03T22:20:57.806Z,9.3
2022-11-03T22:26:03.931Z,9.3
2022-11-03T22:31:10.112Z,9.3
2022-11-03T22:36:16.177Z,9.1
2022-11-03T22:41:22.290Z,9.1
2022-11-03T22:46:28.447Z,9
2022-11-03T22:51:34.506Z,9.2
2022-11-03T22:56:39.653Z,9.2
2022-11-03T23:01:45.760Z,9.2
2022-11-03T23:06:51.871Z,9
2022-11-03T23:11:58.018Z,9.1
2022-11-03T23:17:04.093Z,9
2022-11-03T23:22:10.265Z,8.9
2022-11-03T23:27:16.407Z,8.7
2022-11-03T23:32:22.495Z,8.5
2022-11-03T23:37:28.633Z,8.2
2022-11-03T23:42:34.712Z,7.9
2022-11-03T23:47:40.831Z,7.7
2022-11-03T23:52:46.946Z,7.5
2022-11-03T23:57:53.050Z,7.5
